sensor_id;sensor_type;location;lat;lon;timestamp;P1;durP1;ratioP1;P2;durP2;ratioP2
47337;SDS011;33069;51.970;5.892;2022-09-30T00:01:36;19.75;;;16.58;;
47337;SDS011;33069;51.970;5.892;2022-09-30T00:04:03;20.98;;;15.50;;
47337;SDS011;33069;51.970;5.892;2022-09-30T00:06:30;13.30;;;11.90;;
47337;SDS011;33069;51.970;5.892;2022-09-30T00:08:56;15.82;;;11.48;;
47337;SDS011;33069;51.970;5.892;2022-09-30T00:11:24;14.65;;;12.85;;
47337;SDS011;33069;51.970;5.892;2022-09-30T00:13:54;22.52;;;18.33;;
47337;SDS011;33069;51.970;5.892;2022-09-30T00:16:22;17.20;;;14.82;;
47337;SDS011;33069;51.970;5.892;2022-09-30T00:18:49;17.20;;;14.85;;
47337;SDS011;33069;51.970;5.892;2022-09-30T00:21:18;15.38;;;13.45;;
47337;SDS011;33069;51.970;5.892;2022-09-30T00:23:43;19.35;;;13.75;;
47337;SDS011;33069;51.970;5.892;2022-09-30T00:26:11;18.67;;;14.25;;
47337;SDS011;33069;51.970;5.892;2022-09-30T00:28:39;18.23;;;13.85;;
47337;SDS011;33069;51.970;5.892;2022-09-30T00:31:06;16.02;;;13.23;;
47337;SDS011;33069;51.970;5.892;2022-09-30T00:33:35;25.00;;;19.35;;
47337;SDS011;33069;51.970;5.892;2022-09-30T00:36:01;15.07;;;13.48;;
47337;SDS011;33069;51.970;5.892;2022-09-30T00:38:27;19.30;;;14.50;;
47337;SDS011;33069;51.970;5.892;2022-09-30T00:40:53;22.73;;;17.95;;
47337;SDS011;33069;51.970;5.892;2022-09-30T00:46:27;20.65;;;16.73;;
47337;SDS011;33069;51.970;5.892;2022-09-30T00:49:08;33.13;;;23.98;;
47337;SDS011;33069;51.970;5.892;2022-09-30T00:51:39;22.48;;;16.65;;
47337;SDS011;33069;51.970;5.892;2022-09-30T00:54:10;24.00;;;18.15;;
47337;SDS011;33069;51.970;5.892;2022-09-30T00:56:41;20.63;;;15.38;;
47337;SDS011;33069;51.970;5.892;2022-09-30T00:59:13;22.98;;;19.23;;
47337;SDS011;33069;51.970;5.892;2022-09-30T01:01:43;19.33;;;14.80;;
47337;SDS011;33069;51.970;5.892;2022-09-30T01:04:19;20.25;;;16.30;;
47337;SDS011;33069;51.970;5.892;2022-09-30T01:06:47;18.13;;;15.52;;
47337;SDS011;33069;51.970;5.892;2022-09-30T01:09:14;19.02;;;14.88;;
47337;SDS011;33069;51.970;5.892;2022-09-30T01:11:41;19.02;;;15.43;;
47337;SDS011;33069;51.970;5.892;2022-09-30T01:14:11;19.02;;;15.75;;
47337;SDS011;33069;51.970;5.892;2022-09-30T01:30:44;20.73;;;16.15;;
47337;SDS011;33069;51.970;5.892;2022-09-30T01:38:37;19.90;;;15.65;;
47337;SDS011;33069;51.970;5.892;2022-09-30T01:41:56;29.38;;;19.15;;
47337;SDS011;33069;51.970;5.892;2022-09-30T01:47:09;24.05;;;18.70;;
47337;SDS011;33069;51.970;5.892;2022-09-30T01:49:44;23.38;;;18.63;;
47337;SDS011;33069;51.970;5.892;2022-09-30T01:52:17;29.40;;;21.80;;
47337;SDS011;33069;51.970;5.892;2022-09-30T01:54:50;28.50;;;20.17;;
47337;SDS011;33069;51.970;5.892;2022-09-30T01:57:38;25.85;;;19.02;;
47337;SDS011;33069;51.970;5.892;2022-09-30T02:00:10;21.15;;;17.38;;
47337;SDS011;33069;51.970;5.892;2022-09-30T02:02:47;28.08;;;20.52;;
47337;SDS011;33069;51.970;5.892;2022-09-30T02:08:15;41.00;;;27.95;;
47337;SDS011;33069;51.970;5.892;2022-09-30T02:10:52;25.92;;;21.40;;
47337;SDS011;33069;51.970;5.892;2022-09-30T02:16:11;22.52;;;16.35;;
47337;SDS011;33069;51.970;5.892;2022-09-30T02:18:43;22.30;;;15.73;;
47337;SDS011;33069;51.970;5.892;2022-09-30T02:21:11;22.95;;;17.38;;
47337;SDS011;33069;51.970;5.892;2022-09-30T02:23:44;19.38;;;15.68;;
47337;SDS011;33069;51.970;5.892;2022-09-30T02:26:20;33.63;;;15.25;;
47337;SDS011;33069;51.970;5.892;2022-09-30T02:28:57;17.02;;;15.23;;
47337;SDS011;33069;51.970;5.892;2022-09-30T02:31:30;26.50;;;14.70;;
47337;SDS011;33069;51.970;5.892;2022-09-30T02:34:01;16.70;;;14.63;;
47337;SDS011;33069;51.970;5.892;2022-09-30T02:36:40;19.30;;;16.08;;
47337;SDS011;33069;51.970;5.892;2022-09-30T02:42:13;40.42;;;16.67;;
47337;SDS011;33069;51.970;5.892;2022-09-30T02:44:47;23.35;;;18.02;;
47337;SDS011;33069;51.970;5.892;2022-09-30T02:49:48;22.75;;;17.75;;
47337;SDS011;33069;51.970;5.892;2022-09-30T02:55:30;48.47;;;19.88;;
47337;SDS011;33069;51.970;5.892;2022-09-30T02:58:10;26.48;;;20.85;;
47337;SDS011;33069;51.970;5.892;2022-09-30T03:00:49;25.05;;;19.85;;
47337;SDS011;33069;51.970;5.892;2022-09-30T03:03:23;30.63;;;23.60;;
47337;SDS011;33069;51.970;5.892;2022-09-30T03:05:50;24.83;;;19.25;;
47337;SDS011;33069;51.970;5.892;2022-09-30T03:08:17;19.83;;;15.82;;
47337;SDS011;33069;51.970;5.892;2022-09-30T03:10:43;24.67;;;19.33;;
47337;SDS011;33069;51.970;5.892;2022-09-30T03:21:44;21.95;;;18.10;;
47337;SDS011;33069;51.970;5.892;2022-09-30T03:30:34;23.17;;;16.70;;
47337;SDS011;33069;51.970;5.892;2022-09-30T03:35:46;110.65;;;31.98;;
47337;SDS011;33069;51.970;5.892;2022-09-30T03:40:46;27.42;;;19.83;;
47337;SDS011;33069;51.970;5.892;2022-09-30T03:43:44;77.22;;;24.73;;
47337;SDS011;33069;51.970;5.892;2022-09-30T03:46:20;20.73;;;15.98;;
47337;SDS011;33069;51.970;5.892;2022-09-30T03:49:07;40.15;;;24.00;;
47337;SDS011;33069;51.970;5.892;2022-09-30T03:51:44;17.13;;;14.20;;
47337;SDS011;33069;51.970;5.892;2022-09-30T03:54:10;197.05;;;28.33;;
47337;SDS011;33069;51.970;5.892;2022-09-30T03:56:37;17.58;;;14.35;;
47337;SDS011;33069;51.970;5.892;2022-09-30T03:59:23;23.05;;;18.92;;
47337;SDS011;33069;51.970;5.892;2022-09-30T04:01:54;18.80;;;15.02;;
47337;SDS011;33069;51.970;5.892;2022-09-30T04:04:21;24.90;;;19.63;;
47337;SDS011;33069;51.970;5.892;2022-09-30T04:06:47;24.35;;;17.67;;
47337;SDS011;33069;51.970;5.892;2022-09-30T04:09:13;20.27;;;16.63;;
47337;SDS011;33069;51.970;5.892;2022-09-30T04:11:39;18.08;;;15.35;;
47337;SDS011;33069;51.970;5.892;2022-09-30T04:14:04;19.60;;;15.93;;
47337;SDS011;33069;51.970;5.892;2022-09-30T04:16:30;21.40;;;16.00;;
47337;SDS011;33069;51.970;5.892;2022-09-30T04:18:57;20.63;;;15.48;;
47337;SDS011;33069;51.970;5.892;2022-09-30T04:21:22;15.45;;;13.85;;
47337;SDS011;33069;51.970;5.892;2022-09-30T04:23:49;20.33;;;15.95;;
47337;SDS011;33069;51.970;5.892;2022-09-30T04:26:15;15.90;;;13.80;;
47337;SDS011;33069;51.970;5.892;2022-09-30T04:28:44;18.60;;;14.80;;
47337;SDS011;33069;51.970;5.892;2022-09-30T04:31:10;26.88;;;15.93;;
47337;SDS011;33069;51.970;5.892;2022-09-30T04:33:38;17.45;;;13.82;;
47337;SDS011;33069;51.970;5.892;2022-09-30T04:36:04;27.75;;;20.58;;
47337;SDS011;33069;51.970;5.892;2022-09-30T04:38:30;20.40;;;14.90;;
47337;SDS011;33069;51.970;5.892;2022-09-30T04:41:00;136.93;;;33.03;;
47337;SDS011;33069;51.970;5.892;2022-09-30T04:43:28;37.17;;;20.80;;
47337;SDS011;33069;51.970;5.892;2022-09-30T04:45:54;44.30;;;22.30;;
47337;SDS011;33069;51.970;5.892;2022-09-30T04:48:21;41.10;;;20.80;;
47337;SDS011;33069;51.970;5.892;2022-09-30T04:50:47;43.17;;;23.50;;
47337;SDS011;33069;51.970;5.892;2022-09-30T04:53:13;54.15;;;28.25;;
47337;SDS011;33069;51.970;5.892;2022-09-30T04:55:40;39.42;;;24.20;;
47337;SDS011;33069;51.970;5.892;2022-09-30T04:58:06;52.38;;;28.25;;
47337;SDS011;33069;51.970;5.892;2022-09-30T05:00:32;26.67;;;19.75;;
47337;SDS011;33069;51.970;5.892;2022-09-30T05:02:57;358.02;;;52.88;;
47337;SDS011;33069;51.970;5.892;2022-09-30T05:05:23;25.20;;;18.80;;
47337;SDS011;33069;51.970;5.892;2022-09-30T05:07:49;31.75;;;18.85;;
47337;SDS011;33069;51.970;5.892;2022-09-30T05:10:14;136.98;;;30.92;;
47337;SDS011;33069;51.970;5.892;2022-09-30T05:12:40;69.32;;;22.08;;
47337;SDS011;33069;51.970;5.892;2022-09-30T05:15:06;70.88;;;27.20;;
47337;SDS011;33069;51.970;5.892;2022-09-30T05:17:33;27.90;;;20.20;;
47337;SDS011;33069;51.970;5.892;2022-09-30T05:19:59;37.20;;;20.80;;
47337;SDS011;33069;51.970;5.892;2022-09-30T05:22:26;21.13;;;17.10;;
47337;SDS011;33069;51.970;5.892;2022-09-30T05:24:53;17.52;;;15.57;;
47337;SDS011;33069;51.970;5.892;2022-09-30T05:27:22;22.45;;;18.95;;
47337;SDS011;33069;51.970;5.892;2022-09-30T05:29:48;28.90;;;21.00;;
47337;SDS011;33069;51.970;5.892;2022-09-30T05:32:14;23.95;;;18.80;;
47337;SDS011;33069;51.970;5.892;2022-09-30T05:34:40;28.90;;;20.20;;
47337;SDS011;33069;51.970;5.892;2022-09-30T05:37:06;24.25;;;19.77;;
47337;SDS011;33069;51.970;5.892;2022-09-30T05:39:33;51.10;;;32.28;;
47337;SDS011;33069;51.970;5.892;2022-09-30T05:42:00;60.08;;;35.42;;
47337;SDS011;33069;51.970;5.892;2022-09-30T05:44:25;25.75;;;21.13;;
47337;SDS011;33069;51.970;5.892;2022-09-30T05:46:51;56.40;;;34.65;;
47337;SDS011;33069;51.970;5.892;2022-09-30T05:49:17;21.50;;;18.38;;
47337;SDS011;33069;51.970;5.892;2022-09-30T05:51:42;23.85;;;19.77;;
47337;SDS011;33069;51.970;5.892;2022-09-30T05:54:09;25.73;;;20.00;;
47337;SDS011;33069;51.970;5.892;2022-09-30T05:56:35;29.77;;;22.80;;
47337;SDS011;33069;51.970;5.892;2022-09-30T05:59:05;28.13;;;22.80;;
47337;SDS011;33069;51.970;5.892;2022-09-30T06:01:31;52.05;;;26.38;;
47337;SDS011;33069;51.970;5.892;2022-09-30T06:03:57;146.02;;;36.78;;
47337;SDS011;33069;51.970;5.892;2022-09-30T06:06:24;181.70;;;39.50;;
47337;SDS011;33069;51.970;5.892;2022-09-30T06:08:50;120.95;;;35.67;;
47337;SDS011;33069;51.970;5.892;2022-09-30T06:11:17;138.10;;;38.83;;
47337;SDS011;33069;51.970;5.892;2022-09-30T06:13:44;84.30;;;27.45;;
47337;SDS011;33069;51.970;5.892;2022-09-30T06:16:14;91.88;;;33.75;;
47337;SDS011;33069;51.970;5.892;2022-09-30T06:18:42;145.32;;;32.30;;
47337;SDS011;33069;51.970;5.892;2022-09-30T06:21:08;252.48;;;44.63;;
47337;SDS011;33069;51.970;5.892;2022-09-30T06:23:36;43.20;;;23.40;;
47337;SDS011;33069;51.970;5.892;2022-09-30T06:26:03;76.20;;;28.40;;
47337;SDS011;33069;51.970;5.892;2022-09-30T06:28:30;180.05;;;36.30;;
47337;SDS011;33069;51.970;5.892;2022-09-30T06:30:59;166.23;;;37.92;;
47337;SDS011;33069;51.970;5.892;2022-09-30T06:33:26;86.93;;;33.17;;
47337;SDS011;33069;51.970;5.892;2022-09-30T06:35:52;67.50;;;31.10;;
47337;SDS011;33069;51.970;5.892;2022-09-30T06:38:18;47.10;;;29.10;;
47337;SDS011;33069;51.970;5.892;2022-09-30T06:40:46;140.73;;;38.33;;
47337;SDS011;33069;51.970;5.892;2022-09-30T06:43:18;35.97;;;27.48;;
47337;SDS011;33069;51.970;5.892;2022-09-30T06:45:45;632.70;;;85.03;;
47337;SDS011;33069;51.970;5.892;2022-09-30T06:48:11;118.30;;;40.58;;
47337;SDS011;33069;51.970;5.892;2022-09-30T06:50:38;47.10;;;31.10;;
47337;SDS011;33069;51.970;5.892;2022-09-30T06:53:04;49.72;;;32.45;;
47337;SDS011;33069;51.970;5.892;2022-09-30T06:55:31;40.95;;;29.42;;
47337;SDS011;33069;51.970;5.892;2022-09-30T06:57:58;42.28;;;29.83;;
47337;SDS011;33069;51.970;5.892;2022-09-30T07:00:25;39.47;;;30.20;;
47337;SDS011;33069;51.970;5.892;2022-09-30T07:02:53;46.00;;;32.70;;
47337;SDS011;33069;51.970;5.892;2022-09-30T07:05:20;51.47;;;33.92;;
47337;SDS011;33069;51.970;5.892;2022-09-30T07:07:47;50.00;;;34.42;;
47337;SDS011;33069;51.970;5.892;2022-09-30T07:10:13;43.95;;;33.08;;
47337;SDS011;33069;51.970;5.892;2022-09-30T07:12:39;56.35;;;39.05;;
47337;SDS011;33069;51.970;5.892;2022-09-30T07:15:06;48.05;;;32.13;;
47337;SDS011;33069;51.970;5.892;2022-09-30T07:17:32;56.13;;;39.08;;
47337;SDS011;33069;51.970;5.892;2022-09-30T07:19:57;58.95;;;41.50;;
47337;SDS011;33069;51.970;5.892;2022-09-30T07:22:23;71.05;;;48.15;;
47337;SDS011;33069;51.970;5.892;2022-09-30T07:24:57;57.97;;;41.88;;
47337;SDS011;33069;51.970;5.892;2022-09-30T07:27:25;59.35;;;39.35;;
47337;SDS011;33069;51.970;5.892;2022-09-30T07:29:52;64.63;;;41.38;;
47337;SDS011;33069;51.970;5.892;2022-09-30T07:32:21;57.40;;;41.20;;
47337;SDS011;33069;51.970;5.892;2022-09-30T07:34:47;59.67;;;39.33;;
47337;SDS011;33069;51.970;5.892;2022-09-30T07:37:14;60.03;;;41.20;;
47337;SDS011;33069;51.970;5.892;2022-09-30T07:39:41;61.72;;;41.28;;
47337;SDS011;33069;51.970;5.892;2022-09-30T07:42:09;62.00;;;42.88;;
47337;SDS011;33069;51.970;5.892;2022-09-30T07:44:36;69.53;;;48.05;;
47337;SDS011;33069;51.970;5.892;2022-09-30T07:47:06;63.22;;;45.67;;
47337;SDS011;33069;51.970;5.892;2022-09-30T07:49:33;73.78;;;49.17;;
47337;SDS011;33069;51.970;5.892;2022-09-30T07:52:00;63.28;;;44.47;;
47337;SDS011;33069;51.970;5.892;2022-09-30T07:54:27;70.72;;;48.22;;
47337;SDS011;33069;51.970;5.892;2022-09-30T07:56:55;65.88;;;45.47;;
47337;SDS011;33069;51.970;5.892;2022-09-30T07:59:21;63.30;;;43.88;;
47337;SDS011;33069;51.970;5.892;2022-09-30T08:01:47;65.43;;;45.13;;
47337;SDS011;33069;51.970;5.892;2022-09-30T08:04:15;70.45;;;47.40;;
47337;SDS011;33069;51.970;5.892;2022-09-30T08:06:43;63.63;;;44.08;;
47337;SDS011;33069;51.970;5.892;2022-09-30T08:09:12;65.03;;;43.75;;
47337;SDS011;33069;51.970;5.892;2022-09-30T08:11:39;68.88;;;44.03;;
47337;SDS011;33069;51.970;5.892;2022-09-30T08:14:07;66.38;;;47.72;;
47337;SDS011;33069;51.970;5.892;2022-09-30T08:16:37;68.15;;;48.63;;
47337;SDS011;33069;51.970;5.892;2022-09-30T08:19:03;69.13;;;48.53;;
47337;SDS011;33069;51.970;5.892;2022-09-30T08:21:29;65.97;;;45.33;;
47337;SDS011;33069;51.970;5.892;2022-09-30T08:23:55;65.43;;;49.22;;
47337;SDS011;33069;51.970;5.892;2022-09-30T08:26:21;62.10;;;46.22;;
47337;SDS011;33069;51.970;5.892;2022-09-30T08:28:47;61.33;;;46.88;;
47337;SDS011;33069;51.970;5.892;2022-09-30T08:31:14;63.75;;;47.40;;
47337;SDS011;33069;51.970;5.892;2022-09-30T08:33:41;62.05;;;45.92;;
47337;SDS011;33069;51.970;5.892;2022-09-30T08:36:08;62.10;;;46.60;;
47337;SDS011;33069;51.970;5.892;2022-09-30T08:38:36;55.83;;;44.65;;
47337;SDS011;33069;51.970;5.892;2022-09-30T08:46:32;53.28;;;42.75;;
47337;SDS011;33069;51.970;5.892;2022-09-30T08:51:47;49.78;;;40.90;;
47337;SDS011;33069;51.970;5.892;2022-09-30T08:54:17;51.10;;;41.67;;
47337;SDS011;33069;51.970;5.892;2022-09-30T08:56:45;49.38;;;38.95;;
47337;SDS011;33069;51.970;5.892;2022-09-30T09:04:56;42.60;;;35.97;;
47337;SDS011;33069;51.970;5.892;2022-09-30T09:15:50;35.63;;;31.13;;
47337;SDS011;33069;51.970;5.892;2022-09-30T09:23:20;35.22;;;29.30;;
47337;SDS011;33069;51.970;5.892;2022-09-30T09:25:47;30.40;;;27.13;;
47337;SDS011;33069;51.970;5.892;2022-09-30T09:30:57;30.63;;;26.35;;
47337;SDS011;33069;51.970;5.892;2022-09-30T09:33:29;30.48;;;27.17;;
47337;SDS011;33069;51.970;5.892;2022-09-30T09:41:08;28.55;;;25.42;;
47337;SDS011;33069;51.970;5.892;2022-09-30T09:46:48;26.10;;;22.52;;
47337;SDS011;33069;51.970;5.892;2022-09-30T09:49:48;29.63;;;23.75;;
47337;SDS011;33069;51.970;5.892;2022-09-30T09:55:27;26.30;;;21.20;;
47337;SDS011;33069;51.970;5.892;2022-09-30T09:58:06;25.98;;;23.08;;
47337;SDS011;33069;51.970;5.892;2022-09-30T10:00:41;23.83;;;21.10;;
47337;SDS011;33069;51.970;5.892;2022-09-30T10:05:44;22.03;;;19.07;;
47337;SDS011;33069;51.970;5.892;2022-09-30T10:08:29;23.98;;;19.58;;
47337;SDS011;33069;51.970;5.892;2022-09-30T10:10:59;21.88;;;19.55;;
47337;SDS011;33069;51.970;5.892;2022-09-30T10:13:29;21.92;;;19.38;;
47337;SDS011;33069;51.970;5.892;2022-09-30T10:16:08;24.92;;;20.30;;
47337;SDS011;33069;51.970;5.892;2022-09-30T10:18:50;23.90;;;19.77;;
47337;SDS011;33069;51.970;5.892;2022-09-30T10:21:23;25.83;;;19.92;;
47337;SDS011;33069;51.970;5.892;2022-09-30T10:23:50;27.30;;;21.67;;
47337;SDS011;33069;51.970;5.892;2022-09-30T10:26:19;24.08;;;18.92;;
47337;SDS011;33069;51.970;5.892;2022-09-30T10:36:44;22.60;;;17.50;;
47337;SDS011;33069;51.970;5.892;2022-09-30T10:41:48;21.10;;;16.80;;
47337;SDS011;33069;51.970;5.892;2022-09-30T10:44:20;19.70;;;16.27;;
47337;SDS011;33069;51.970;5.892;2022-09-30T10:46:48;20.98;;;16.45;;
47337;SDS011;33069;51.970;5.892;2022-09-30T10:52:13;18.40;;;16.42;;
47337;SDS011;33069;51.970;5.892;2022-09-30T10:54:53;19.42;;;15.38;;
47337;SDS011;33069;51.970;5.892;2022-09-30T10:57:28;19.65;;;15.98;;
47337;SDS011;33069;51.970;5.892;2022-09-30T11:05:16;21.40;;;15.52;;
47337;SDS011;33069;51.970;5.892;2022-09-30T11:07:52;16.08;;;14.38;;
47337;SDS011;33069;51.970;5.892;2022-09-30T11:16:51;15.77;;;13.63;;
47337;SDS011;33069;51.970;5.892;2022-09-30T11:24:56;16.13;;;12.13;;
47337;SDS011;33069;51.970;5.892;2022-09-30T11:27:47;16.75;;;12.05;;
47337;SDS011;33069;51.970;5.892;2022-09-30T11:33:33;15.63;;;12.85;;
47337;SDS011;33069;51.970;5.892;2022-09-30T11:36:27;15.88;;;14.10;;
47337;SDS011;33069;51.970;5.892;2022-09-30T11:44:41;16.80;;;14.43;;
47337;SDS011;33069;51.970;5.892;2022-09-30T11:50:06;17.50;;;14.15;;
47337;SDS011;33069;51.970;5.892;2022-09-30T11:58:14;25.35;;;15.93;;
47337;SDS011;33069;51.970;5.892;2022-09-30T12:00:45;17.55;;;13.57;;
47337;SDS011;33069;51.970;5.892;2022-09-30T12:05:55;18.30;;;12.93;;
47337;SDS011;33069;51.970;5.892;2022-09-30T12:08:45;14.48;;;12.40;;
47337;SDS011;33069;51.970;5.892;2022-09-30T12:11:22;16.70;;;12.85;;
47337;SDS011;33069;51.970;5.892;2022-09-30T12:13:58;16.45;;;12.90;;
47337;SDS011;33069;51.970;5.892;2022-09-30T12:16:30;14.57;;;11.55;;
47337;SDS011;33069;51.970;5.892;2022-09-30T12:19:20;13.90;;;11.38;;
47337;SDS011;33069;51.970;5.892;2022-09-30T12:21:55;16.02;;;10.23;;
47337;SDS011;33069;51.970;5.892;2022-09-30T12:24:31;15.10;;;9.30;;
47337;SDS011;33069;51.970;5.892;2022-09-30T12:27:02;13.57;;;9.57;;
47337;SDS011;33069;51.970;5.892;2022-09-30T12:29:37;11.27;;;8.90;;
47337;SDS011;33069;51.970;5.892;2022-09-30T12:32:32;14.90;;;10.38;;
47337;SDS011;33069;51.970;5.892;2022-09-30T12:48:44;6.07;;;4.13;;
47337;SDS011;33069;51.970;5.892;2022-09-30T12:51:31;5.07;;;3.70;;
47337;SDS011;33069;51.970;5.892;2022-09-30T12:54:20;5.85;;;4.55;;
47337;SDS011;33069;51.970;5.892;2022-09-30T12:56:51;11.05;;;6.88;;
47337;SDS011;33069;51.970;5.892;2022-09-30T12:59:25;7.00;;;6.05;;
47337;SDS011;33069;51.970;5.892;2022-09-30T13:01:55;8.05;;;4.60;;
47337;SDS011;33069;51.970;5.892;2022-09-30T13:04:29;8.65;;;4.15;;
47337;SDS011;33069;51.970;5.892;2022-09-30T13:19:38;4.72;;;3.40;;
47337;SDS011;33069;51.970;5.892;2022-09-30T13:27:40;3.80;;;3.38;;
47337;SDS011;33069;51.970;5.892;2022-09-30T13:32:48;4.85;;;2.75;;
47337;SDS011;33069;51.970;5.892;2022-09-30T13:35:31;7.70;;;2.90;;
47337;SDS011;33069;51.970;5.892;2022-09-30T13:40:44;4.18;;;3.00;;
47337;SDS011;33069;51.970;5.892;2022-09-30T13:43:27;4.68;;;2.33;;
47337;SDS011;33069;51.970;5.892;2022-09-30T13:45:55;6.18;;;2.53;;
47337;SDS011;33069;51.970;5.892;2022-09-30T13:48:31;6.40;;;2.50;;
47337;SDS011;33069;51.970;5.892;2022-09-30T13:51:00;4.00;;;2.35;;
47337;SDS011;33069;51.970;5.892;2022-09-30T13:53:57;5.05;;;2.40;;
47337;SDS011;33069;51.970;5.892;2022-09-30T13:56:31;5.28;;;2.20;;
47337;SDS011;33069;51.970;5.892;2022-09-30T14:22:07;4.40;;;2.45;;
47337;SDS011;33069;51.970;5.892;2022-09-30T14:24:37;3.70;;;2.60;;
47337;SDS011;33069;51.970;5.892;2022-09-30T14:35:05;3.80;;;2.20;;
47337;SDS011;33069;51.970;5.892;2022-09-30T14:37:37;6.32;;;2.47;;
47337;SDS011;33069;51.970;5.892;2022-09-30T14:40:09;2.75;;;2.00;;
47337;SDS011;33069;51.970;5.892;2022-09-30T14:42:40;3.08;;;1.67;;
47337;SDS011;33069;51.970;5.892;2022-09-30T14:45:12;2.72;;;1.80;;
47337;SDS011;33069;51.970;5.892;2022-09-30T14:47:44;6.78;;;1.92;;
47337;SDS011;33069;51.970;5.892;2022-09-30T14:50:16;2.42;;;2.03;;
47337;SDS011;33069;51.970;5.892;2022-09-30T14:52:45;4.53;;;1.80;;
47337;SDS011;33069;51.970;5.892;2022-09-30T14:55:26;4.35;;;1.90;;
47337;SDS011;33069;51.970;5.892;2022-09-30T15:00:48;4.63;;;1.90;;
47337;SDS011;33069;51.970;5.892;2022-09-30T15:03:22;3.75;;;1.75;;
47337;SDS011;33069;51.970;5.892;2022-09-30T15:05:48;2.80;;;1.77;;
47337;SDS011;33069;51.970;5.892;2022-09-30T15:08:18;4.53;;;2.05;;
47337;SDS011;33069;51.970;5.892;2022-09-30T15:10:46;3.65;;;1.90;;
47337;SDS011;33069;51.970;5.892;2022-09-30T15:13:17;3.70;;;1.98;;
47337;SDS011;33069;51.970;5.892;2022-09-30T15:15:45;4.97;;;1.65;;
47337;SDS011;33069;51.970;5.892;2022-09-30T15:18:24;4.22;;;1.80;;
47337;SDS011;33069;51.970;5.892;2022-09-30T15:20:51;4.47;;;1.60;;
47337;SDS011;33069;51.970;5.892;2022-09-30T15:23:22;6.50;;;1.77;;
47337;SDS011;33069;51.970;5.892;2022-09-30T15:25:50;4.45;;;1.73;;
47337;SDS011;33069;51.970;5.892;2022-09-30T15:28:17;2.67;;;1.85;;
47337;SDS011;33069;51.970;5.892;2022-09-30T15:30:43;6.93;;;1.70;;
47337;SDS011;33069;51.970;5.892;2022-09-30T15:33:15;2.83;;;1.70;;
47337;SDS011;33069;51.970;5.892;2022-09-30T15:38:20;3.63;;;1.70;;
47337;SDS011;33069;51.970;5.892;2022-09-30T15:40:59;4.03;;;1.80;;
47337;SDS011;33069;51.970;5.892;2022-09-30T15:43:39;4.10;;;1.70;;
47337;SDS011;33069;51.970;5.892;2022-09-30T15:46:15;4.53;;;1.73;;
47337;SDS011;33069;51.970;5.892;2022-09-30T15:48:45;4.75;;;1.70;;
47337;SDS011;33069;51.970;5.892;2022-09-30T15:51:22;7.18;;;1.80;;
47337;SDS011;33069;51.970;5.892;2022-09-30T15:53:48;3.45;;;1.63;;
47337;SDS011;33069;51.970;5.892;2022-09-30T15:56:16;3.08;;;1.77;;
47337;SDS011;33069;51.970;5.892;2022-09-30T15:58:56;3.97;;;1.80;;
47337;SDS011;33069;51.970;5.892;2022-09-30T16:01:34;4.57;;;1.98;;
47337;SDS011;33069;51.970;5.892;2022-09-30T16:04:13;5.15;;;1.90;;
47337;SDS011;33069;51.970;5.892;2022-09-30T16:06:51;5.63;;;2.28;;
47337;SDS011;33069;51.970;5.892;2022-09-30T16:09:24;5.45;;;2.47;;
47337;SDS011;33069;51.970;5.892;2022-09-30T16:14:49;5.80;;;2.60;;
47337;SDS011;33069;51.970;5.892;2022-09-30T16:17:32;4.50;;;2.40;;
47337;SDS011;33069;51.970;5.892;2022-09-30T16:28:15;4.55;;;2.20;;
47337;SDS011;33069;51.970;5.892;2022-09-30T16:30:44;7.22;;;2.42;;
47337;SDS011;33069;51.970;5.892;2022-09-30T16:33:14;5.63;;;2.10;;
47337;SDS011;33069;51.970;5.892;2022-09-30T16:35:43;4.10;;;2.17;;
47337;SDS011;33069;51.970;5.892;2022-09-30T16:38:13;3.88;;;2.25;;
47337;SDS011;33069;51.970;5.892;2022-09-30T16:40:40;5.05;;;2.10;;
47337;SDS011;33069;51.970;5.892;2022-09-30T16:43:06;6.43;;;2.10;;
47337;SDS011;33069;51.970;5.892;2022-09-30T16:45:33;5.97;;;2.20;;
47337;SDS011;33069;51.970;5.892;2022-09-30T16:48:00;7.07;;;2.55;;
47337;SDS011;33069;51.970;5.892;2022-09-30T16:50:37;4.93;;;1.85;;
47337;SDS011;33069;51.970;5.892;2022-09-30T16:53:05;4.60;;;2.70;;
47337;SDS011;33069;51.970;5.892;2022-09-30T16:55:33;5.57;;;2.40;;
47337;SDS011;33069;51.970;5.892;2022-09-30T16:57:59;4.60;;;2.22;;
47337;SDS011;33069;51.970;5.892;2022-09-30T17:00:25;6.15;;;2.40;;
47337;SDS011;33069;51.970;5.892;2022-09-30T17:02:52;4.22;;;2.25;;
47337;SDS011;33069;51.970;5.892;2022-09-30T17:05:19;5.68;;;2.33;;
47337;SDS011;33069;51.970;5.892;2022-09-30T17:07:49;6.70;;;2.78;;
47337;SDS011;33069;51.970;5.892;2022-09-30T17:10:18;4.05;;;2.30;;
47337;SDS011;33069;51.970;5.892;2022-09-30T17:12:46;5.13;;;2.42;;
47337;SDS011;33069;51.970;5.892;2022-09-30T17:15:14;5.53;;;2.72;;
47337;SDS011;33069;51.970;5.892;2022-09-30T17:17:41;6.18;;;2.53;;
47337;SDS011;33069;51.970;5.892;2022-09-30T17:20:07;5.90;;;2.60;;
47337;SDS011;33069;51.970;5.892;2022-09-30T17:22:33;4.07;;;2.22;;
47337;SDS011;33069;51.970;5.892;2022-09-30T17:24:59;6.25;;;2.47;;
47337;SDS011;33069;51.970;5.892;2022-09-30T17:27:24;5.07;;;2.72;;
47337;SDS011;33069;51.970;5.892;2022-09-30T17:29:51;6.72;;;2.55;;
47337;SDS011;33069;51.970;5.892;2022-09-30T17:32:16;5.72;;;2.80;;
47337;SDS011;33069;51.970;5.892;2022-09-30T17:34:42;5.88;;;2.80;;
47337;SDS011;33069;51.970;5.892;2022-09-30T17:37:08;12.07;;;2.90;;
47337;SDS011;33069;51.970;5.892;2022-09-30T17:39:37;6.30;;;2.65;;
47337;SDS011;33069;51.970;5.892;2022-09-30T17:42:03;6.70;;;3.13;;
47337;SDS011;33069;51.970;5.892;2022-09-30T17:44:47;5.15;;;2.90;;
47337;SDS011;33069;51.970;5.892;2022-09-30T17:47:13;6.15;;;2.88;;
47337;SDS011;33069;51.970;5.892;2022-09-30T17:49:38;4.43;;;2.67;;
47337;SDS011;33069;51.970;5.892;2022-09-30T17:52:04;8.07;;;3.17;;
47337;SDS011;33069;51.970;5.892;2022-09-30T17:54:30;7.00;;;2.95;;
47337;SDS011;33069;51.970;5.892;2022-09-30T17:56:57;7.88;;;2.88;;
47337;SDS011;33069;51.970;5.892;2022-09-30T17:59:23;5.80;;;2.50;;
47337;SDS011;33069;51.970;5.892;2022-09-30T18:01:50;4.78;;;2.70;;
47337;SDS011;33069;51.970;5.892;2022-09-30T18:04:17;9.98;;;5.53;;
47337;SDS011;33069;51.970;5.892;2022-09-30T18:06:44;7.75;;;3.20;;
47337;SDS011;33069;51.970;5.892;2022-09-30T18:09:10;7.00;;;3.13;;
47337;SDS011;33069;51.970;5.892;2022-09-30T18:11:36;6.22;;;3.30;;
47337;SDS011;33069;51.970;5.892;2022-09-30T18:14:02;7.47;;;3.28;;
47337;SDS011;33069;51.970;5.892;2022-09-30T18:16:29;9.15;;;5.07;;
47337;SDS011;33069;51.970;5.892;2022-09-30T18:18:57;4.97;;;3.17;;
47337;SDS011;33069;51.970;5.892;2022-09-30T18:21:24;8.48;;;5.38;;
47337;SDS011;33069;51.970;5.892;2022-09-30T18:23:52;8.35;;;4.75;;
47337;SDS011;33069;51.970;5.892;2022-09-30T18:26:21;7.43;;;4.30;;
47337;SDS011;33069;51.970;5.892;2022-09-30T18:28:49;10.18;;;4.20;;
47337;SDS011;33069;51.970;5.892;2022-09-30T18:31:17;9.98;;;4.93;;
47337;SDS011;33069;51.970;5.892;2022-09-30T18:33:55;7.50;;;4.28;;
47337;SDS011;33069;51.970;5.892;2022-09-30T18:36:22;7.00;;;3.80;;
47337;SDS011;33069;51.970;5.892;2022-09-30T18:38:49;8.02;;;4.05;;
47337;SDS011;33069;51.970;5.892;2022-09-30T18:41:14;9.27;;;4.07;;
47337;SDS011;33069;51.970;5.892;2022-09-30T18:43:41;7.38;;;3.58;;
47337;SDS011;33069;51.970;5.892;2022-09-30T18:46:09;5.60;;;3.70;;